Time;durP1;ratioP1;P1;durP2;ratioP2;P2;SDS_P1;SDS_P2;PMS_P1;PMS_P2;Temp;Humidity;BMP_temperature;BMP_pressure;BME280_temperature;BME280_humidity;BME280_pressure;Samples;Min_cycle;Max_cycle;Signal;HPM_P1;HPM_P2
2024/01/08 00:01:50;;;;;;;21.60;10.93;;;-0.10;99.90;;;;;;7312275;19;20620;-89
2024/01/08 00:04:16;;;;;;;23.67;10.80;;;-0.10;99.90;;;;;;7284354;19;20188;-89
2024/01/08 00:06:42;;;;;;;24.00;11.20;;;-0.10;99.90;;;;;;7314676;19;20238;-90
2024/01/08 00:09:08;;;;;;;22.03;11.53;;;-0.10;99.90;;;;;;7300892;19;20184;-91
2024/01/08 00:11:34;;;;;;;23.23;12.37;;;-0.10;99.90;;;;;;7284575;19;20222;-90
2024/01/08 00:13:59;;;;;;;22.03;11.13;;;0.00;99.90;;;;;;7285160;19;20185;-91
2024/01/08 00:16:25;;;;;;;23.20;11.30;;;-0.10;99.90;;;;;;7287553;19;20215;-93
2024/01/08 00:19:20;;;;;;;21.90;11.57;;;-0.10;99.90;;;;;;7314175;19;20185;-95
2024/01/08 00:22:15;;;;;;;22.73;11.53;;;-0.10;99.90;;;;;;7415749;19;20157;-90
2024/01/08 00:24:47;;;;;;;23.67;12.20;;;-0.20;99.90;;;;;;7418551;19;20156;-91
2024/01/08 00:27:33;;;;;;;22.47;10.77;;;-0.20;99.90;;;;;;7301431;19;20189;-93
2024/01/08 00:30:05;;;;;;;22.23;10.80;;;-0.20;99.90;;;;;;7305059;19;20197;-93
2024/01/08 00:32:40;;;;;;;23.57;11.40;;;-0.20;99.90;;;;;;7287286;19;20177;-92
2024/01/08 00:35:08;;;;;;;23.60;12.43;;;-0.20;99.90;;;;;;7278584;19;20180;-94
2024/01/08 00:38:02;;;;;;;23.43;11.07;;;-0.20;99.90;;;;;;7299519;19;20186;-89
2024/01/08 00:41:06;;;;;;;24.67;11.50;;;-0.20;99.90;;;;;;7223942;19;2004380;-90
2024/01/08 00:43:38;;;;;;;22.40;11.47;;;-0.20;99.90;;;;;;7184162;19;2004563;-91
2024/01/08 00:46:24;;;;;;;22.20;10.10;;;-0.10;99.90;;;;;;7303713;19;20203;-93
2024/01/08 00:49:43;;;;;;;12.97;5.97;;;-0.10;99.90;;;;;;7294153;19;20991;-90
2024/01/08 00:52:47;;;;;;;18.77;9.70;;;-0.20;99.90;;;;;;7204703;19;2004471;-91
2024/01/08 00:56:08;;;;;;;18.90;9.93;;;-0.20;99.90;;;;;;7120368;19;2004632;-94
2024/01/08 00:58:41;;;;;;;17.73;9.37;;;-0.20;99.90;;;;;;7193584;19;2004585;-91
2024/01/08 01:01:22;;;;;;;18.53;9.53;;;-0.10;99.90;;;;;;7280966;19;20205;-92
2024/01/08 01:04:17;;;;;;;16.27;7.60;;;0.00;99.90;;;;;;7268308;19;20260;-90
2024/01/08 01:07:05;;;;;;;17.80;8.93;;;0.00;99.90;;;;;;7288036;19;20205;-93
2024/01/08 01:09:38;;;;;;;19.53;8.73;;;0.00;99.90;;;;;;7293262;19;20223;-91
2024/01/08 01:12:05;;;;;;;19.13;9.10;;;0.10;99.90;;;;;;7307683;19;20192;-93
2024/01/08 01:14:37;;;;;;;15.23;7.87;;;0.10;99.90;;;;;;7300825;19;20184;-89
2024/01/08 01:17:05;;;;;;;17.17;8.13;;;0.00;99.90;;;;;;7299567;19;20190;-91
2024/01/08 01:19:46;;;;;;;16.27;8.30;;;-0.10;99.90;;;;;;7305601;19;20200;-90
2024/01/08 01:22:18;;;;;;;18.93;9.30;;;-0.10;99.90;;;;;;7272037;19;20200;-93
2024/01/08 01:25:11;;;;;;;15.33;8.07;;;0.10;99.90;;;;;;7302092;19;20197;-92
2024/01/08 01:27:58;;;;;;;13.30;7.13;;;0.10;99.90;;;;;;7302898;19;20220;-88
2024/01/08 01:33:36;;;;;;;13.60;7.50;;;0.10;99.90;;;;;;7197502;19;2004608;-93
2024/01/08 01:36:25;;;;;;;12.87;6.50;;;0.20;99.90;;;;;;7306711;19;20236;-94
2024/01/08 01:39:20;;;;;;;15.20;7.73;;;0.10;99.90;;;;;;7212874;19;2004525;-93
2024/01/08 01:45:08;;;;;;;14.57;7.40;;;0.20;99.90;;;;;;7185861;19;2004563;-90
2024/01/08 01:48:33;;;;;;;14.80;7.83;;;0.30;99.90;;;;;;7293280;19;20205;-89
2024/01/08 01:51:03;;;;;;;13.27;6.37;;;0.10;99.90;;;;;;7205606;19;2004306;-90
2024/01/08 01:57:28;;;;;;;15.10;7.37;;;0.10;99.90;;;;;;7202143;19;2004319;-91
2024/01/08 02:00:14;;;;;;;12.53;6.23;;;0.20;99.90;;;;;;7061583;19;2004496;-90
2024/01/08 02:05:47;;;;;;;16.77;7.60;;;0.00;99.90;;;;;;7208067;19;2004375;-90
2024/01/08 02:08:26;;;;;;;13.03;6.37;;;0.10;99.90;;;;;;7186360;19;2004721;-88
2024/01/08 02:11:18;;;;;;;16.87;7.47;;;0.30;99.90;;;;;;7310185;19;20185;-91
2024/01/08 02:14:03;;;;;;;15.40;7.57;;;0.10;99.90;;;;;;7306470;19;20196;-91
2024/01/08 02:16:29;;;;;;;16.03;7.70;;;0.00;99.90;;;;;;7206160;19;2004246;-93
2024/01/08 02:19:20;;;;;;;17.13;7.27;;;0.10;99.90;;;;;;7280159;19;20184;-91
2024/01/08 02:21:53;;;;;;;16.50;7.77;;;0.10;99.90;;;;;;7330975;19;20217;-91
2024/01/08 02:24:29;;;;;;;14.37;7.20;;;0.00;99.90;;;;;;7289020;19;20204;-93
2024/01/08 02:27:25;;;;;;;15.73;6.57;;;0.10;99.90;;;;;;7308805;19;20195;-90
2024/01/08 02:30:20;;;;;;;17.97;7.97;;;0.20;99.90;;;;;;7203670;19;2004506;-91
2024/01/08 02:33:02;;;;;;;15.30;7.57;;;0.10;99.90;;;;;;7199434;19;2004532;-90
2024/01/08 02:35:39;;;;;;;15.93;8.43;;;0.10;99.90;;;;;;7307682;19;20197;-93
2024/01/08 02:38:15;;;;;;;13.70;7.47;;;0.00;99.90;;;;;;7297442;19;20204;-92
2024/01/08 02:41:15;;;;;;;13.80;7.63;;;-0.10;99.90;;;;;;7231182;19;2004573;-91
2024/01/08 02:44:19;;;;;;;14.33;7.60;;;-0.20;99.90;;;;;;7295256;19;20201;-92
2024/01/08 02:47:31;;;;;;;14.43;8.40;;;-0.20;99.90;;;;;;7303135;19;20217;-93
2024/01/08 02:50:09;;;;;;;13.90;7.47;;;-0.30;99.90;;;;;;7097343;19;2004566;-91
2024/01/08 02:52:39;;;;;;;16.53;7.93;;;-0.40;99.90;;;;;;7304181;19;20202;-94
2024/01/08 02:58:56;;;;;;;16.03;7.83;;;-0.20;99.90;;;;;;7102646;19;2004533;-90
2024/01/08 03:05:10;;;;;;;14.97;7.50;;;-0.40;99.90;;;;;;7195424;19;2004384;-89
2024/01/08 03:07:42;;;;;;;15.03;7.60;;;-0.30;99.90;;;;;;7207314;19;2004212;-90
2024/01/08 03:10:27;;;;;;;16.33;8.60;;;-0.40;99.90;;;;;;7306561;19;20193;-90
2024/01/08 03:13:09;;;;;;;15.30;8.17;;;-0.30;99.90;;;;;;7172647;19;2004640;-92
2024/01/08 03:16:02;;;;;;;16.20;8.67;;;-0.30;99.90;;;;;;7309629;19;20184;-89
2024/01/08 03:19:15;;;;;;;16.30;8.13;;;-0.20;99.90;;;;;;7211625;19;2004313;-91
2024/01/08 03:21:56;;;;;;;15.23;8.73;;;-0.30;99.90;;;;;;7198445;19;2004588;-91
2024/01/08 03:24:22;;;;;;;17.07;8.10;;;-0.30;99.90;;;;;;7202352;19;2004468;-89
2024/01/08 03:26:48;;;;;;;11.93;5.97;;;-0.20;99.90;;;;;;7308924;19;20196;-93
2024/01/08 03:29:14;;;;;;;9.37;5.27;;;-0.30;99.90;;;;;;7322577;19;20225;-93
2024/01/08 03:31:44;;;;;;;17.17;8.57;;;-0.40;99.90;;;;;;7276014;19;20200;-90
2024/01/08 03:34:39;;;;;;;17.63;9.03;;;-0.40;99.90;;;;;;7181282;19;2004611;-89
2024/01/08 03:37:40;;;;;;;14.60;7.70;;;-0.30;99.90;;;;;;7290660;19;20188;-94
2024/01/08 03:40:08;;;;;;;19.80;9.37;;;-0.20;99.90;;;;;;7186558;19;2004647;-90
2024/01/08 03:42:45;;;;;;;15.23;8.23;;;-0.10;99.90;;;;;;7289416;19;20300;-93
2024/01/08 03:46:05;;;;;;;18.23;8.63;;;-0.40;99.90;;;;;;7293512;19;20256;-92
2024/01/08 03:51:56;;;;;;;14.57;7.57;;;-0.50;99.90;;;;;;7196931;19;2004361;-93
2024/01/08 03:54:48;;;;;;;15.07;9.17;;;-0.50;99.90;;;;;;7292314;19;20188;-89
2024/01/08 03:57:25;;;;;;;15.67;8.40;;;-0.40;99.90;;;;;;7304718;19;20634;-90
2024/01/08 04:00:12;;;;;;;14.17;7.77;;;-0.40;99.90;;;;;;7202525;19;2004471;-92
2024/01/08 04:03:25;;;;;;;15.97;9.33;;;-0.40;99.90;;;;;;7303067;19;20196;-93
2024/01/08 04:06:21;;;;;;;16.83;9.27;;;-0.30;99.90;;;;;;7083336;19;2004704;-93
2024/01/08 04:08:56;;;;;;;15.17;9.17;;;-0.30;99.90;;;;;;7291282;19;20704;-94
2024/01/08 04:11:24;;;;;;;16.50;9.50;;;-0.30;99.90;;;;;;7288965;19;20191;-90
2024/01/08 04:13:52;;;;;;;15.13;9.03;;;-0.30;99.90;;;;;;7288549;19;20314;-93
2024/01/08 04:16:24;;;;;;;16.60;9.20;;;-0.30;99.90;;;;;;7285245;19;20193;-95
2024/01/08 04:18:50;;;;;;;15.57;9.23;;;-0.30;99.90;;;;;;7303842;19;20199;-94
2024/01/08 04:21:17;;;;;;;16.50;9.27;;;-0.30;99.90;;;;;;7302284;19;20191;-93
2024/01/08 04:30:18;;;;;;;12.80;6.87;;;-0.50;99.90;;;;;;7187556;19;2004441;-90
2024/01/08 04:33:15;;;;;;;14.77;8.73;;;-0.50;99.90;;;;;;7305917;19;20279;-94
2024/01/08 04:35:59;;;;;;;13.23;7.57;;;-0.50;99.90;;;;;;7203704;19;2004547;-90
2024/01/08 04:38:58;;;;;;;12.87;7.83;;;-0.60;99.90;;;;;;7195621;19;2004523;-91
2024/01/08 04:42:06;;;;;;;;;;;;;;;;;;;;;
2024/01/08 04:44:33;;;;;;;12.27;6.40;;;-0.50;99.90;;;;;;7302436;19;20367;-91
2024/01/08 04:47:07;;;;;;;13.27;8.50;;;-0.50;99.90;;;;;;7297234;19;20230;-90
2024/01/08 04:50:11;;;;;;;12.07;7.07;;;-0.50;99.90;;;;;;7301338;19;20189;-92
2024/01/08 04:52:49;;;;;;;12.87;7.00;;;-0.60;99.90;;;;;;7197825;19;2004470;-94
2024/01/08 04:55:50;;;;;;;12.90;7.60;;;-0.60;99.90;;;;;;7197144;19;2004423;-89
2024/01/08 04:58:16;;;;;;;16.40;8.00;;;-0.50;99.90;;;;;;7297380;19;20232;-95
2024/01/08 05:00:48;;;;;;;12.87;7.43;;;-0.50;99.90;;;;;;7310922;19;20305;-93
2024/01/08 05:03:32;;;;;;;13.17;7.80;;;-0.50;99.90;;;;;;7296553;19;20196;-92
2024/01/08 05:06:03;;;;;;;11.17;6.33;;;-0.40;99.90;;;;;;7197183;19;2004572;-90
2024/01/08 05:08:44;;;;;;;14.23;7.90;;;-0.40;99.90;;;;;;7301450;19;20203;-93
2024/01/08 05:11:27;;;;;;;13.17;6.23;;;-0.30;99.90;;;;;;7283621;19;20734;-92
2024/01/08 05:14:04;;;;;;;11.70;6.67;;;-0.30;99.90;;;;;;7305534;19;20192;-91
2024/01/08 05:16:34;;;;;;;11.87;6.20;;;-0.30;99.90;;;;;;7293668;19;20188;-92
2024/01/08 05:18:59;;;;;;;9.10;4.77;;;-0.40;99.90;;;;;;7293263;19;20567;-90
2024/01/08 05:21:26;;;;;;;11.07;6.13;;;-0.50;99.90;;;;;;7287297;19;20204;-92
2024/01/08 05:23:51;;;;;;;13.63;6.30;;;-0.50;99.90;;;;;;7291211;19;20240;-90
2024/01/08 05:26:22;;;;;;;12.07;6.27;;;-0.30;99.90;;;;;;7303990;19;20572;-93
2024/01/08 05:28:49;;;;;;;10.50;5.93;;;-0.20;99.90;;;;;;7300372;19;20195;-89
2024/01/08 05:31:15;;;;;;;11.73;5.87;;;-0.30;99.90;;;;;;7321692;19;20317;-89
2024/01/08 05:33:44;;;;;;;11.90;6.30;;;-0.30;99.90;;;;;;7304579;19;20189;-89
2024/01/08 05:36:29;;;;;;;14.27;6.40;;;-0.30;99.90;;;;;;7302821;19;20206;-90
2024/01/08 05:38:59;;;;;;;11.57;6.17;;;-0.30;99.90;;;;;;7200910;19;2004604;-89
2024/01/08 05:41:42;;;;;;;11.57;6.00;;;-0.50;99.90;;;;;;7300968;19;20196;-89
2024/01/08 05:44:08;;;;;;;11.73;5.90;;;-0.50;99.90;;;;;;7300324;19;20192;-89
2024/01/08 05:46:34;;;;;;;11.40;6.13;;;-0.70;99.90;;;;;;7294175;19;20196;-89
2024/01/08 05:49:03;;;;;;;13.00;6.90;;;-0.90;99.90;;;;;;7288461;19;20594;-88
2024/01/08 05:51:29;;;;;;;13.80;6.90;;;-0.90;99.90;;;;;;7291213;19;20184;-90
2024/01/08 05:53:55;;;;;;;10.83;5.73;;;-0.90;99.90;;;;;;7292779;19;20189;-91
2024/01/08 05:56:21;;;;;;;13.17;7.30;;;-0.90;99.90;;;;;;7294696;19;20183;-90
2024/01/08 05:58:46;;;;;;;15.80;7.10;;;-1.00;99.90;;;;;;7313298;19;20181;-90
2024/01/08 06:01:12;;;;;;;13.07;6.97;;;-1.00;99.90;;;;;;7304144;19;20188;-90
2024/01/08 06:03:38;;;;;;;12.23;6.60;;;-1.00;99.90;;;;;;7295012;19;20241;-89
2024/01/08 06:06:07;;;;;;;12.90;6.77;;;-0.90;99.90;;;;;;7292648;19;20198;-81
2024/01/08 06:08:33;;;;;;;13.97;6.90;;;-0.90;99.90;;;;;;7292307;19;20191;-79
2024/01/08 06:10:59;;;;;;;12.77;6.67;;;-0.90;99.90;;;;;;7291534;19;20197;-79
2024/01/08 06:13:24;;;;;;;12.73;6.33;;;-0.90;99.90;;;;;;7296001;19;20682;-80
2024/01/08 06:15:50;;;;;;;13.90;6.80;;;-0.80;99.90;;;;;;7291149;19;20217;-77
2024/01/08 06:18:17;;;;;;;12.60;6.10;;;-0.70;99.90;;;;;;7307576;19;20189;-79
2024/01/08 06:20:43;;;;;;;9.73;5.27;;;-0.70;99.90;;;;;;7310730;19;20188;-79
2024/01/08 06:23:09;;;;;;;12.87;7.10;;;-0.80;99.90;;;;;;7294739;19;20184;-78
2024/01/08 06:25:35;;;;;;;9.93;5.23;;;-0.80;99.90;;;;;;7290461;19;20181;-79
2024/01/08 06:28:01;;;;;;;13.07;6.77;;;-0.80;99.90;;;;;;7288388;19;20533;-79
2024/01/08 06:30:26;;;;;;;10.93;5.53;;;-0.70;99.90;;;;;;7288224;19;20218;-80
2024/01/08 06:32:52;;;;;;;12.97;7.07;;;-0.70;99.90;;;;;;7280325;19;20310;-79
2024/01/08 06:35:18;;;;;;;15.43;7.07;;;-0.70;99.90;;;;;;7288902;19;20324;-79
2024/01/08 06:37:44;;;;;;;13.03;6.63;;;-0.60;99.90;;;;;;7306239;19;20661;-79
2024/01/08 06:40:10;;;;;;;12.60;6.33;;;-0.60;99.90;;;;;;7273557;19;20196;-79
2024/01/08 06:42:37;;;;;;;11.77;6.37;;;-0.50;99.90;;;;;;7299055;19;20461;-82
2024/01/08 06:45:04;;;;;;;13.27;6.30;;;-0.50;99.90;;;;;;7291336;19;20207;-82
2024/01/08 06:47:30;;;;;;;10.70;6.17;;;-0.60;99.90;;;;;;7281519;19;20723;-81
2024/01/08 06:49:56;;;;;;;12.27;5.93;;;-0.60;99.90;;;;;;7284731;19;20189;-82
2024/01/08 06:52:25;;;;;;;12.47;6.00;;;-0.60;99.90;;;;;;7296584;19;20199;-85
2024/01/08 06:54:51;;;;;;;10.17;4.77;;;-0.60;99.90;;;;;;7291690;19;20217;-85
2024/01/08 06:57:20;;;;;;;12.23;6.63;;;-0.70;99.90;;;;;;7300227;19;20547;-87
2024/01/08 06:59:46;;;;;;;12.33;6.27;;;-0.70;99.90;;;;;;7312908;19;20196;-88
2024/01/08 07:02:12;;;;;;;14.73;7.03;;;-0.60;99.90;;;;;;7294733;19;20185;-88
2024/01/08 07:04:38;;;;;;;13.37;6.37;;;-0.40;99.90;;;;;;7290066;19;20194;-86
2024/01/08 07:07:04;;;;;;;11.57;5.20;;;-0.40;99.90;;;;;;7290175;19;20185;-87
2024/01/08 07:09:39;;;;;;;13.53;7.10;;;-0.50;99.90;;;;;;7299125;19;20632;-84
2024/01/08 07:12:16;;;;;;;13.63;7.00;;;-0.50;99.90;;;;;;7300918;19;20188;-87
2024/01/08 07:14:55;;;;;;;13.70;6.87;;;-0.40;99.90;;;;;;7292712;19;20217;-85
2024/01/08 07:17:22;;;;;;;12.63;6.57;;;-0.40;99.90;;;;;;7186927;19;2004585;-86
2024/01/08 07:19:48;;;;;;;16.37;7.27;;;-0.40;99.90;;;;;;7293743;19;20190;-86
2024/01/08 07:22:14;;;;;;;13.60;6.77;;;-0.40;99.90;;;;;;7310618;19;20217;-88
2024/01/08 07:24:40;;;;;;;12.00;5.97;;;-0.50;99.90;;;;;;7287659;19;20180;-89
2024/01/08 07:27:07;;;;;;;13.90;7.17;;;-0.50;99.90;;;;;;7290119;19;21220;-88
2024/01/08 07:29:33;;;;;;;13.40;8.13;;;-0.50;99.90;;;;;;7294224;19;20224;-87
2024/01/08 07:31:59;;;;;;;16.47;7.57;;;-0.60;99.90;;;;;;7291880;19;20256;-86
2024/01/08 07:34:27;;;;;;;14.80;7.53;;;-0.60;99.90;;;;;;7296957;19;20393;-88
2024/01/08 07:36:54;;;;;;;13.80;7.53;;;-0.50;99.90;;;;;;7295291;19;20193;-86
2024/01/08 07:39:20;;;;;;;14.17;6.37;;;-0.60;99.90;;;;;;7286534;19;20181;-86
2024/01/08 07:41:49;;;;;;;15.67;7.73;;;-0.40;99.90;;;;;;7308360;19;20305;-89
2024/01/08 07:44:19;;;;;;;15.90;8.80;;;-0.50;99.90;;;;;;7290690;19;20205;-87
2024/01/08 07:46:57;;;;;;;16.97;7.97;;;-0.50;99.90;;;;;;7300376;19;20276;-86
2024/01/08 07:49:40;;;;;;;15.47;7.13;;;-0.70;99.90;;;;;;7295124;19;20192;-87
2024/01/08 07:52:36;;;;;;;15.33;8.83;;;-0.70;99.90;;;;;;7206057;19;2004658;-87
2024/01/08 07:55:26;;;;;;;15.47;7.83;;;-0.60;99.90;;;;;;7307489;19;20192;-87
2024/01/08 07:58:06;;;;;;;15.40;7.93;;;-0.70;99.90;;;;;;7199958;19;2004630;-89
2024/01/08 08:00:47;;;;;;;17.37;8.37;;;-0.60;99.90;;;;;;7301099;19;20189;-89
2024/01/08 08:03:22;;;;;;;15.00;8.03;;;-0.50;99.90;;;;;;7305778;19;20242;-88
2024/01/08 08:05:50;;;;;;;15.23;8.03;;;-0.50;99.90;;;;;;7272519;19;20216;-86
2024/01/08 08:08:19;;;;;;;17.03;8.20;;;-0.60;99.90;;;;;;7311497;19;20180;-89
2024/01/08 08:10:48;;;;;;;16.13;7.93;;;-0.50;99.90;;;;;;7296690;19;20216;-89
2024/01/08 08:13:14;;;;;;;16.10;7.87;;;-0.50;99.90;;;;;;7301025;19;20213;-88
2024/01/08 08:15:52;;;;;;;15.53;7.30;;;-0.50;99.90;;;;;;7295994;19;20256;-88
2024/01/08 08:18:20;;;;;;;15.83;8.53;;;-0.50;99.90;;;;;;7281188;19;20264;-87
2024/01/08 08:21:07;;;;;;;17.57;7.43;;;-0.50;99.90;;;;;;7321047;19;20185;-86
2024/01/08 08:23:33;;;;;;;19.60;8.90;;;-0.50;99.90;;;;;;7298813;19;20192;-89
2024/01/08 08:26:02;;;;;;;15.93;8.33;;;-0.40;99.90;;;;;;7297221;19;20192;-86
2024/01/08 08:28:47;;;;;;;13.90;8.07;;;-0.40;99.90;;;;;;7292480;19;20195;-88
2024/01/08 08:31:13;;;;;;;15.23;8.50;;;-0.40;99.90;;;;;;7297682;19;20188;-86
2024/01/08 08:33:42;;;;;;;16.27;8.57;;;-0.40;99.90;;;;;;7291709;19;20199;-87
2024/01/08 08:36:11;;;;;;;15.60;8.00;;;-0.30;99.90;;;;;;7293440;19;20189;-87
2024/01/08 08:38:38;;;;;;;16.07;8.47;;;-0.20;99.90;;;;;;7294257;19;20181;-89
2024/01/08 08:41:04;;;;;;;16.23;8.27;;;-0.10;99.90;;;;;;7295679;19;20220;-88
2024/01/08 08:43:34;;;;;;;16.07;8.33;;;-0.10;99.90;;;;;;7289332;19;20192;-87
2024/01/08 08:46:00;;;;;;;20.43;9.63;;;-0.30;99.90;;;;;;7297236;19;20189;-86
2024/01/08 08:48:28;;;;;;;17.53;8.50;;;-0.30;99.90;;;;;;7286567;19;20196;-86
2024/01/08 08:50:56;;;;;;;17.57;9.17;;;-0.30;99.90;;;;;;7285282;19;20196;-87
2024/01/08 08:53:22;;;;;;;15.87;8.57;;;-0.20;99.90;;;;;;7283216;19;20208;-87
2024/01/08 08:55:48;;;;;;;17.17;8.80;;;-0.20;99.90;;;;;;7300093;19;20291;-86
2024/01/08 08:58:14;;;;;;;15.93;9.30;;;-0.20;99.90;;;;;;7295436;19;20185;-87
2024/01/08 09:00:40;;;;;;;17.93;9.20;;;-0.10;99.90;;;;;;7281887;19;20176;-89
2024/01/08 09:03:09;;;;;;;16.90;8.87;;;-0.10;99.90;;;;;;7297177;19;20204;-87
2024/01/08 09:05:35;;;;;;;20.70;9.60;;;-0.20;99.90;;;;;;7300573;19;20188;-88
2024/01/08 09:08:02;;;;;;;15.77;8.67;;;-0.20;99.90;;;;;;7300597;19;20185;-88
2024/01/08 09:10:37;;;;;;;16.00;9.17;;;-0.20;99.90;;;;;;7310356;19;20237;-87
2024/01/08 09:13:03;;;;;;;18.83;9.67;;;-0.20;99.90;;;;;;7309049;19;20656;-85
2024/01/08 09:15:29;;;;;;;14.97;7.87;;;-0.20;99.90;;;;;;7305825;19;20184;-86
2024/01/08 09:18:03;;;;;;;16.87;8.63;;;-0.20;99.90;;;;;;7301487;19;20737;-87
2024/01/08 09:20:42;;;;;;;17.27;10.00;;;-0.20;99.90;;;;;;7301419;19;20252;-87
2024/01/08 09:23:09;;;;;;;19.33;10.10;;;-0.20;99.90;;;;;;7302021;19;20192;-87
2024/01/08 09:25:35;;;;;;;19.40;9.67;;;-0.30;99.90;;;;;;7306084;19;20574;-86
2024/01/08 09:28:03;;;;;;;17.93;9.27;;;-0.30;99.90;;;;;;7305508;19;20193;-87
2024/01/08 09:30:30;;;;;;;22.53;10.00;;;-0.20;99.90;;;;;;7306909;19;20225;-88
2024/01/08 09:33:02;;;;;;;17.53;10.20;;;-0.10;99.90;;;;;;7303282;19;20205;-86
2024/01/08 09:35:29;;;;;;;16.37;8.37;;;0.10;99.90;;;;;;7296563;19;20220;-86
2024/01/08 09:38:00;;;;;;;14.23;6.90;;;0.30;99.90;;;;;;7300179;19;20189;-88
2024/01/08 09:40:33;;;;;;;17.53;9.73;;;0.10;99.90;;;;;;7301939;19;20192;-86
2024/01/08 09:43:16;;;;;;;17.07;9.33;;;0.10;99.90;;;;;;7304736;19;20192;-86
2024/01/08 09:46:18;;;;;;;15.97;8.00;;;0.10;99.90;;;;;;7302430;19;20240;-88
2024/01/08 09:48:54;;;;;;;17.07;9.67;;;-0.10;99.90;;;;;;7201189;19;2004357;-86
2024/01/08 09:51:25;;;;;;;19.43;10.57;;;0.00;99.90;;;;;;7277573;19;20652;-86
2024/01/08 09:53:58;;;;;;;21.17;10.00;;;0.00;99.90;;;;;;7295082;19;20209;-86
2024/01/08 09:56:28;;;;;;;19.83;10.17;;;0.00;99.90;;;;;;7299789;19;20197;-86
2024/01/08 09:58:56;;;;;;;21.07;10.70;;;-0.10;99.90;;;;;;7301906;19;20193;-88
2024/01/08 10:01:31;;;;;;;18.87;10.40;;;0.00;99.90;;;;;;7291535;19;20290;-88
2024/01/08 10:04:29;;;;;;;17.83;10.00;;;0.10;99.90;;;;;;7296214;19;20254;-86
2024/01/08 10:07:26;;;;;;;20.80;10.47;;;0.30;99.90;;;;;;7184128;19;2004463;-86
2024/01/08 10:09:52;;;;;;;25.13;11.80;;;0.30;99.90;;;;;;7275007;19;20829;-88
2024/01/08 10:12:33;;;;;;;18.43;9.47;;;0.20;99.90;;;;;;7308038;19;20193;-85
2024/01/08 10:15:13;;;;;;;21.03;10.33;;;0.10;99.90;;;;;;7297060;19;20233;-86
2024/01/08 10:17:43;;;;;;;20.93;11.20;;;0.00;99.90;;;;;;7290585;19;20206;-89
2024/01/08 10:20:13;;;;;;;22.33;10.93;;;0.00;99.90;;;;;;7293639;19;20199;-87
2024/01/08 10:22:39;;;;;;;20.63;10.97;;;0.10;99.90;;;;;;7289308;19;20193;-86
2024/01/08 10:25:06;;;;;;;27.37;12.20;;;0.10;99.90;;;;;;7295282;19;20189;-88
2024/01/08 10:27:31;;;;;;;22.83;12.80;;;0.10;99.90;;;;;;7300345;19;20750;-87
2024/01/08 10:30:01;;;;;;;22.73;12.67;;;0.20;99.90;;;;;;7294253;19;20197;-86
2024/01/08 10:32:33;;;;;;;23.40;12.43;;;0.40;99.90;;;;;;7304600;19;20192;-86
2024/01/08 10:35:09;;;;;;;21.47;12.27;;;0.60;99.90;;;;;;7299285;19;20192;-87
2024/01/08 10:37:47;;;;;;;22.97;12.80;;;0.60;99.90;;;;;;7299842;19;20619;-87
2024/01/08 10:40:19;;;;;;;21.40;12.00;;;0.70;99.90;;;;;;7301222;19;20197;-85
2024/01/08 10:42:56;;;;;;;21.87;11.87;;;0.50;99.90;;;;;;7296770;19;20199;-86
2024/01/08 10:45:22;;;;;;;19.27;10.83;;;0.30;99.90;;;;;;7188146;19;2004386;-85
2024/01/08 10:48:16;;;;;;;22.50;11.57;;;0.40;99.90;;;;;;7299589;19;20681;-85
2024/01/08 10:50:51;;;;;;;19.23;10.77;;;0.40;99.90;;;;;;7291596;19;20219;-88
2024/01/08 10:53:47;;;;;;;23.43;11.77;;;0.50;99.90;;;;;;7292359;19;20192;-87
2024/01/08 10:56:18;;;;;;;20.93;11.77;;;0.40;99.90;;;;;;7189487;19;2005999;-87
2024/01/08 10:59:04;;;;;;;21.07;11.70;;;0.40;99.90;;;;;;7292787;19;20248;-87
2024/01/08 11:01:32;;;;;;;21.00;11.13;;;0.40;99.90;;;;;;7191584;19;2004412;-86
2024/01/08 11:04:09;;;;;;;19.43;11.47;;;0.40;99.90;;;;;;7292851;19;20203;-87
2024/01/08 11:06:40;;;;;;;20.83;11.47;;;0.40;99.90;;;;;;7291179;19;20222;-87
2024/01/08 11:09:24;;;;;;;22.13;11.83;;;0.40;99.90;;;;;;7291515;19;20207;-86
2024/01/08 11:11:54;;;;;;;20.70;12.37;;;0.40;99.90;;;;;;7275562;19;20209;-85
2024/01/08 11:14:46;;;;;;;21.80;11.30;;;0.40;99.90;;;;;;7297481;19;20186;-86
2024/01/08 11:17:25;;;;;;;18.87;10.27;;;0.40;99.90;;;;;;7287855;19;20319;-87
2024/01/08 11:20:36;;;;;;;19.90;11.57;;;0.40;99.90;;;;;;7278128;19;20221;-87
2024/01/08 11:23:24;;;;;;;20.90;11.50;;;0.40;99.90;;;;;;7194758;19;2004559;-86
2024/01/08 11:25:50;;;;;;;18.70;10.60;;;0.40;99.90;;;;;;7268480;19;20200;-87
2024/01/08 11:28:21;;;;;;;17.77;9.33;;;0.50;99.90;;;;;;7315830;19;20177;-88
2024/01/08 11:30:56;;;;;;;20.67;10.47;;;0.60;99.90;;;;;;7290698;19;20207;-86
2024/01/08 11:33:36;;;;;;;19.07;10.30;;;0.50;99.90;;;;;;7268534;19;20211;-87
2024/01/08 11:36:15;;;;;;;12.27;6.60;;;0.50;99.90;;;;;;7293111;19;20249;-88
2024/01/08 11:39:01;;;;;;;17.43;10.40;;;0.50;99.90;;;;;;7284969;19;20192;-86
2024/01/08 11:41:30;;;;;;;17.53;9.40;;;0.50;99.90;;;;;;7188245;19;2004429;-86
2024/01/08 11:44:01;;;;;;;16.03;9.37;;;0.40;99.90;;;;;;7280811;19;20199;-87
2024/01/08 11:46:31;;;;;;;18.93;10.03;;;0.40;99.90;;;;;;7293862;19;20202;-87
2024/01/08 11:49:02;;;;;;;20.47;9.70;;;0.50;99.90;;;;;;7298292;19;20196;-86
2024/01/08 11:51:28;;;;;;;16.77;9.93;;;0.70;99.90;;;;;;7289831;19;20216;-86
2024/01/08 11:53:57;;;;;;;16.60;9.07;;;0.70;99.90;;;;;;7291591;19;20293;-86
2024/01/08 11:56:29;;;;;;;18.30;9.10;;;0.70;99.90;;;;;;7295974;19;20213;-85
2024/01/08 11:59:04;;;;;;;16.67;7.90;;;0.70;99.90;;;;;;7298940;19;20315;-87
2024/01/08 12:01:37;;;;;;;19.23;9.77;;;0.70;99.90;;;;;;7298708;19;20210;-87
2024/01/08 12:04:03;;;;;;;19.83;9.87;;;0.70;99.90;;;;;;7291199;19;20225;-86
2024/01/08 12:06:30;;;;;;;20.00;9.57;;;0.90;99.90;;;;;;7289822;19;20733;-87
2024/01/08 12:08:56;;;;;;;14.33;7.93;;;1.10;99.90;;;;;;7292482;19;20817;-85
2024/01/08 12:11:29;;;;;;;17.37;8.93;;;1.10;99.90;;;;;;7294067;19;20184;-88
2024/01/08 12:14:08;;;;;;;18.07;9.57;;;1.10;99.90;;;;;;7304966;19;20222;-86
2024/01/08 12:16:37;;;;;;;15.70;8.83;;;1.30;99.90;;;;;;7310162;19;20228;-87
2024/01/08 12:19:06;;;;;;;15.10;7.67;;;1.30;99.90;;;;;;7308812;19;20679;-85
2024/01/08 12:21:37;;;;;;;15.10;8.83;;;1.20;99.90;;;;;;7301898;19;20193;-88
2024/01/08 12:24:05;;;;;;;13.60;6.63;;;1.00;99.90;;;;;;7305115;19;20196;-86
2024/01/08 12:26:33;;;;;;;13.13;7.37;;;0.90;99.90;;;;;;7299890;19;20222;-87
2024/01/08 12:29:07;;;;;;;15.50;7.73;;;0.70;99.90;;;;;;7298161;19;20188;-86
2024/01/08 12:31:39;;;;;;;16.03;8.33;;;0.70;99.90;;;;;;7291435;19;20185;-87
2024/01/08 12:34:20;;;;;;;13.20;7.50;;;0.70;99.90;;;;;;7294877;19;20196;-87
2024/01/08 12:36:52;;;;;;;17.43;8.60;;;0.80;99.90;;;;;;7290053;19;20196;-87
2024/01/08 12:39:31;;;;;;;13.93;8.17;;;0.80;99.90;;;;;;7296054;19;20188;-87
2024/01/08 12:42:20;;;;;;;16.67;7.97;;;0.80;99.90;;;;;;7188903;19;2004552;-86
2024/01/08 12:44:53;;;;;;;12.43;7.47;;;0.80;99.90;;;;;;7296885;19;20185;-85
2024/01/08 12:47:19;;;;;;;13.83;7.53;;;0.80;99.90;;;;;;7279379;19;20675;-85
2024/01/08 12:49:45;;;;;;;14.50;7.50;;;0.80;99.90;;;;;;7309966;19;20185;-88
2024/01/08 12:52:14;;;;;;;13.47;7.87;;;0.80;99.90;;;;;;7292906;19;20184;-87
2024/01/08 12:54:41;;;;;;;14.37;8.03;;;0.90;99.90;;;;;;7287318;19;20197;-86
2024/01/08 12:57:13;;;;;;;16.50;8.17;;;1.10;99.90;;;;;;7291169;19;20201;-86
2024/01/08 12:59:53;;;;;;;16.63;8.00;;;1.10;99.90;;;;;;7290915;19;20181;-86
2024/01/08 13:02:23;;;;;;;13.83;7.57;;;1.10;99.90;;;;;;7271942;19;20188;-85
2024/01/08 13:04:49;;;;;;;15.03;7.83;;;1.10;99.90;;;;;;7306072;19;20227;-86
2024/01/08 13:07:18;;;;;;;14.07;7.83;;;1.10;99.90;;;;;;7287614;19;20216;-86
2024/01/08 13:09:47;;;;;;;14.47;7.57;;;1.10;99.90;;;;;;7288922;19;20206;-88
2024/01/08 13:12:35;;;;;;;13.17;7.67;;;1.00;99.90;;;;;;7300235;19;20185;-87
2024/01/08 13:15:32;;;;;;;12.97;7.00;;;1.00;99.90;;;;;;7199349;19;2004538;-87
2024/01/08 13:18:09;;;;;;;11.67;6.90;;;0.90;99.90;;;;;;7196102;19;2004427;-85
2024/01/08 13:20:41;;;;;;;14.87;8.00;;;0.70;99.90;;;;;;7294508;19;20196;-85
2024/01/08 13:23:10;;;;;;;14.33;7.57;;;0.60;99.90;;;;;;7296328;19;20209;-85
2024/01/08 13:25:39;;;;;;;16.27;8.63;;;0.60;99.90;;;;;;7294913;19;20196;-86
2024/01/08 13:28:05;;;;;;;16.23;8.37;;;0.50;99.90;;;;;;7296193;19;20641;-86
2024/01/08 13:30:31;;;;;;;14.27;8.20;;;0.70;99.90;;;;;;7296168;19;20201;-87
2024/01/08 13:33:03;;;;;;;13.67;7.73;;;0.70;99.90;;;;;;7290373;19;20220;-88
2024/01/08 13:35:29;;;;;;;13.70;8.13;;;0.70;99.90;;;;;;7290191;19;20200;-86
2024/01/08 13:37:55;;;;;;;15.03;7.53;;;0.70;99.90;;;;;;7290830;19;20181;-85
2024/01/08 13:40:28;;;;;;;13.57;7.60;;;0.50;99.90;;;;;;7292264;19;20548;-87
2024/01/08 13:42:55;;;;;;;14.70;8.40;;;0.60;99.90;;;;;;7294017;19;20188;-87
2024/01/08 13:45:25;;;;;;;16.10;7.77;;;0.60;99.90;;;;;;7291402;19;20582;-86
2024/01/08 13:47:56;;;;;;;13.53;7.63;;;0.80;99.90;;;;;;7295304;19;20216;-86
2024/01/08 13:50:22;;;;;;;13.50;7.20;;;0.90;99.90;;;;;;7295286;19;20675;-85